ALA6775 SCCI-KMEM
Flight info
| Callsign | ALA6775 |
|---|---|
| Flight time | N/A |
| Altitude | 28000 |
| Route | SIRUN4A SIRUN DCT NIPLA DCT SATIN UQ802 ESGOR UQ809 GUXER DCT RENAB/N0490F300 DCT LOKOL DCT OSEPI DCT ANPUK UL401 ILVOS/N0499F320 UL401 PABOB DCT REDUS/N0498F330 DCT NOTUR/N0493F340 DCT DORLA UL207 ENALO UA758 MID UA770 MEDIR UL209 BETAS UA770 KEHLI DCT LEV J35 MCGEE DCT MEVEE HOBRK4 |
| Aircraft | MD11/H-SDE1E2E3FGHIJ2J3J4J5M1RWXY/LB1D1 |
Departure
| Time | 2026-04-25 20:09 |
|---|---|
| Airport | President Carlos Ibáñez International Airport (SCCI) |
Arrival
| Time | N/A |
|---|---|
| Airport | Memphis International Airport (KMEM) |
| Time | Latitude | Longitude | Altitude | Speed | Heading |
|---|---|---|---|---|---|
| 2026-04-25 19:49 | -53.00465 | -70.84716 | 117 ft | 0 kts | 224° |
| 2026-04-25 20:00 | -53.00469 | -70.84723 | 117 ft | 2 kts | 224° |
| 2026-04-25 20:00 | -53.00471 | -70.84727 | 117 ft | 0 kts | 229° |
| 2026-04-25 20:01 | -53.00467 | -70.84744 | 118 ft | 2 kts | 292° |
| 2026-04-25 20:02 | -53.00457 | -70.84746 | 122 ft | 3 kts | 351° |
| 2026-04-25 20:02 | -53.00430 | -70.84718 | 121 ft | 4 kts | 43° |
| 2026-04-25 20:02 | -53.00406 | -70.84679 | 137 ft | 4 kts | 44° |
| 2026-04-25 20:02 | -53.00395 | -70.84668 | 118 ft | 0 kts | 21° |
| 2026-04-25 20:03 | -53.00377 | -70.84662 | 120 ft | 6 kts | 13° |
| 2026-04-25 20:03 | -53.00356 | -70.84658 | 121 ft | 0 kts | 355° |
| 2026-04-25 20:03 | -53.00344 | -70.84670 | 121 ft | 4 kts | 330° |
| 2026-04-25 20:03 | -53.00281 | -70.84702 | 120 ft | 6 kts | 8° |
| 2026-04-25 20:04 | -53.00251 | -70.84727 | 121 ft | 16 kts | 319° |
| 2026-04-25 20:04 | -53.00156 | -70.84862 | 123 ft | 17 kts | 326° |
| 2026-04-25 20:04 | -53.00121 | -70.84901 | 123 ft | 0 kts | 326° |
| 2026-04-25 20:07 | -53.00084 | -70.84978 | 121 ft | 34 kts | 301° |
| 2026-04-25 20:07 | -53.00090 | -70.85779 | 121 ft | 105 kts | 266° |
| 2026-04-25 20:08 | -53.00117 | -70.87349 | 136 ft | 163 kts | 269° |
| 2026-04-25 20:08 | -53.00086 | -70.84981 | 125 ft | 387 kts | 269° |
| 2026-04-25 20:08 | -53.00081 | -70.84531 | 125 ft | 193 kts | 267° |
| 2026-04-25 20:08 | -53.00056 | -70.86874 | 313 ft | 213 kts | 262° |
| 2026-04-25 20:09 | -53.00061 | -70.89454 | 475 ft | 232 kts | 275° |
| 2026-04-25 20:09 | -52.99342 | -70.91918 | 971 ft | 248 kts | 308° |
| 2026-04-25 20:09 | -52.97993 | -70.93787 | 1325 ft | 259 kts | 316° |
| 2026-04-25 20:09 | -52.96596 | -70.95758 | 1566 ft | 267 kts | 311° |
| 2026-04-25 20:10 | -52.95415 | -70.98069 | 1780 ft | 257 kts | 294° |
| 2026-04-25 20:10 | -52.94839 | -71.00766 | 1989 ft | 249 kts | 268° |
| 2026-04-25 20:10 | -52.95157 | -71.03481 | 1973 ft | 245 kts | 239° |
| 2026-04-25 20:10 | -52.96354 | -71.05853 | 1193 ft | 283 kts | 224° |
| 2026-04-25 20:11 | -52.97222 | -71.08250 | 3645 ft | 217 kts | 250° |
| 2026-04-25 20:11 | -52.97314 | -71.10560 | 5358 ft | 191 kts | 265° |
| 2026-04-25 20:11 | -52.97150 | -71.13008 | 4345 ft | 251 kts | 276° |